<?xml version="1.0" encoding="utf-8"?>
<gpx xmlns:xsi="http://www.w3.org/2001/XMLSchema-instance" xmlns:xsd="http://www.w3.org/2001/XMLSchema" version="1.1" creator="Shapelink.com" xmlns="http://www.topografix.com/GPX/1/1" xmlns:gpxtpx="http://www.garmin.com/xmlschemas/TrackPointExtension/v1">
  <metadata>
    <name>Övrigt 3.02 km, 2019-07-21</name>
    <desc></desc>
    <author><name>Marian Moron</name></author> 
    <time>2019-07-21T13:10:54Z</time>
  </metadata>
  <trk>
    <name>Övrigt 3.02 km, 2019-07-21</name>
    <trkseg>
      <trkpt lat="51.215918876136" lon="4.482390423199">
        <ele>21.2</ele>
        <time>2019-07-21T13:10:54Z</time>
      </trkpt>
      <trkpt lat="51.215939998524" lon="4.482310124597">
        <ele>13.6</ele>
        <time>2019-07-21T13:11:55Z</time>
      </trkpt>
      <trkpt lat="51.216037144745" lon="4.482275339712">
        <ele>13.4</ele>
        <time>2019-07-21T13:12:07Z</time>
      </trkpt>
      <trkpt lat="51.216207129677" lon="4.482232340565">
        <ele>13.2</ele>
        <time>2019-07-21T13:12:23Z</time>
      </trkpt>
      <trkpt lat="51.216212410274" lon="4.482192694178">
        <ele>13.2</ele>
        <time>2019-07-21T13:12:25Z</time>
      </trkpt>
      <trkpt lat="51.216189527687" lon="4.48215648437">
        <ele>13.4</ele>
        <time>2019-07-21T13:12:28Z</time>
      </trkpt>
      <trkpt lat="51.21618676166" lon="4.482048441679">
        <ele>13</ele>
        <time>2019-07-21T13:12:35Z</time>
      </trkpt>
      <trkpt lat="51.216217187957" lon="4.482040730331">
        <ele>13.2</ele>
        <time>2019-07-21T13:12:38Z</time>
      </trkpt>
      <trkpt lat="51.216276196533" lon="4.482069228791">
        <ele>14</ele>
        <time>2019-07-21T13:12:42Z</time>
      </trkpt>
      <trkpt lat="51.216353310013" lon="4.482052884086">
        <ele>16</ele>
        <time>2019-07-21T13:12:53Z</time>
      </trkpt>
      <trkpt lat="51.216619686795" lon="4.482030420594">
        <ele>15.8</ele>
        <time>2019-07-21T13:13:18Z</time>
      </trkpt>
      <trkpt lat="51.216688250737" lon="4.482018853572">
        <ele>13.8</ele>
        <time>2019-07-21T13:13:25Z</time>
      </trkpt>
      <trkpt lat="51.216752623729" lon="4.48199974284">
        <ele>11.2</ele>
        <time>2019-07-21T13:13:31Z</time>
      </trkpt>
      <trkpt lat="51.21677265647" lon="4.481990187474">
        <ele>10.8</ele>
        <time>2019-07-21T13:13:33Z</time>
      </trkpt>
      <trkpt lat="51.216904000843" lon="4.481912235804">
        <ele>7.6</ele>
        <time>2019-07-21T13:13:58Z</time>
      </trkpt>
      <trkpt lat="51.21701070243" lon="4.481247718772">
        <ele>2.8</ele>
        <time>2019-07-21T13:14:47Z</time>
      </trkpt>
      <trkpt lat="51.217050684093" lon="4.48110371773">
        <ele>1.2</ele>
        <time>2019-07-21T13:15:17Z</time>
      </trkpt>
      <trkpt lat="51.21705428831" lon="4.480382119959">
        <ele>3.6</ele>
        <time>2019-07-21T13:16:05Z</time>
      </trkpt>
      <trkpt lat="51.217112458696" lon="4.479676531617">
        <ele>4</ele>
        <time>2019-07-21T13:16:51Z</time>
      </trkpt>
      <trkpt lat="51.21715068016" lon="4.478954933846">
        <ele>1.6</ele>
        <time>2019-07-21T13:17:39Z</time>
      </trkpt>
      <trkpt lat="51.217172054005" lon="4.47823626974">
        <ele>1.4</ele>
        <time>2019-07-21T13:18:29Z</time>
      </trkpt>
      <trkpt lat="51.217205581605" lon="4.47751374996">
        <ele>2.4</ele>
        <time>2019-07-21T13:19:20Z</time>
      </trkpt>
      <trkpt lat="51.217253274616" lon="4.476797348967">
        <ele>0.6</ele>
        <time>2019-07-21T13:20:09Z</time>
      </trkpt>
      <trkpt lat="51.217277665945" lon="4.476086480028">
        <ele>0</ele>
        <time>2019-07-21T13:20:56Z</time>
      </trkpt>
      <trkpt lat="51.217312199373" lon="4.475374772899">
        <ele>0</ele>
        <time>2019-07-21T13:21:45Z</time>
      </trkpt>
      <trkpt lat="51.217341452204" lon="4.474654851508">
        <ele>0</ele>
        <time>2019-07-21T13:22:30Z</time>
      </trkpt>
      <trkpt lat="51.217363161325" lon="4.473926799674">
        <ele>0</ele>
        <time>2019-07-21T13:23:13Z</time>
      </trkpt>
      <trkpt lat="51.217357461633" lon="4.473199837487">
        <ele>3.4</ele>
        <time>2019-07-21T13:23:56Z</time>
      </trkpt>
      <trkpt lat="51.217380092763" lon="4.472482011571">
        <ele>1.6</ele>
        <time>2019-07-21T13:24:38Z</time>
      </trkpt>
      <trkpt lat="51.217406663386" lon="4.471773908659">
        <ele>1</ele>
        <time>2019-07-21T13:25:20Z</time>
      </trkpt>
      <trkpt lat="51.217434575113" lon="4.471058681132">
        <ele>5.8</ele>
        <time>2019-07-21T13:26:02Z</time>
      </trkpt>
      <trkpt lat="51.217452093284" lon="4.47075877675">
        <ele>7.8</ele>
        <time>2019-07-21T13:26:18Z</time>
      </trkpt>
      <trkpt lat="51.217570948626" lon="4.470540092979">
        <ele>6.6</ele>
        <time>2019-07-21T13:27:34Z</time>
      </trkpt>
      <trkpt lat="51.217498780467" lon="4.469842467442">
        <ele>6.2</ele>
        <time>2019-07-21T13:28:23Z</time>
      </trkpt>
      <trkpt lat="51.217489057463" lon="4.4691368791">
        <ele>2.2</ele>
        <time>2019-07-21T13:29:11Z</time>
      </trkpt>
      <trkpt lat="51.217473550948" lon="4.468825323877">
        <ele>9.2</ele>
        <time>2019-07-21T13:29:45Z</time>
      </trkpt>
      <trkpt lat="51.217480256468" lon="4.468794143209">
        <ele>9.2</ele>
        <time>2019-07-21T13:29:47Z</time>
      </trkpt>
      <trkpt lat="51.21745410494" lon="4.468356608029">
        <ele>7.2</ele>
        <time>2019-07-21T13:30:16Z</time>
      </trkpt>
      <trkpt lat="51.217313372839" lon="4.468141360837">
        <ele>7.6</ele>
        <time>2019-07-21T13:30:39Z</time>
      </trkpt>
      <trkpt lat="51.217244305983" lon="4.468035413621">
        <ele>8.4</ele>
        <time>2019-07-21T13:30:50Z</time>
      </trkpt>
      <trkpt lat="51.217016485941" lon="4.467664263089">
        <ele>1.4</ele>
        <time>2019-07-21T13:31:29Z</time>
      </trkpt>
      <trkpt lat="51.216598396769" lon="4.467748333546">
        <ele>3.4</ele>
        <time>2019-07-21T13:32:39Z</time>
      </trkpt>
      <trkpt lat="51.216539052917" lon="4.467750261383">
        <ele>5</ele>
        <time>2019-07-21T13:32:46Z</time>
      </trkpt>
      <trkpt lat="51.21634350319" lon="4.467810611063">
        <ele>8.6</ele>
        <time>2019-07-21T13:33:16Z</time>
      </trkpt>
      <trkpt lat="51.215917032118" lon="4.468034156336">
        <ele>7.6</ele>
        <time>2019-07-21T13:34:06Z</time>
      </trkpt>
      <trkpt lat="51.215906470924" lon="4.468049662851">
        <ele>7.8</ele>
        <time>2019-07-21T13:34:07Z</time>
      </trkpt>
      <trkpt lat="51.215799434061" lon="4.468669755813">
        <ele>5</ele>
        <time>2019-07-21T13:34:56Z</time>
      </trkpt>
      <trkpt lat="51.215831201462" lon="4.468779055789">
        <ele>4.4</ele>
        <time>2019-07-21T13:35:03Z</time>
      </trkpt>
      <trkpt lat="51.215961037093" lon="4.468979131742">
        <ele>2.6</ele>
        <time>2019-07-21T13:35:19Z</time>
      </trkpt>
      <trkpt lat="51.216219702527" lon="4.469123132784">
        <ele>0.8</ele>
        <time>2019-07-21T13:35:47Z</time>
      </trkpt>
      <trkpt lat="51.216306119916" lon="4.4691787886">
        <ele>0</ele>
        <time>2019-07-21T13:35:56Z</time>
      </trkpt>
      <trkpt lat="51.216470237518" lon="4.46926428398">
        <ele>0</ele>
        <time>2019-07-21T13:36:14Z</time>
      </trkpt>
      <trkpt lat="51.216852452158" lon="4.469421360786">
        <ele>0</ele>
        <time>2019-07-21T13:36:54Z</time>
      </trkpt>
      <trkpt lat="51.217131234152" lon="4.469157750031">
        <ele>0</ele>
        <time>2019-07-21T13:37:25Z</time>
      </trkpt>
      <trkpt lat="51.217168617426" lon="4.469137465833">
        <ele>0</ele>
        <time>2019-07-21T13:37:29Z</time>
      </trkpt>
      <trkpt lat="51.217233158056" lon="4.469089772822">
        <ele>0</ele>
        <time>2019-07-21T13:37:36Z</time>
      </trkpt>
      <trkpt lat="51.217271463339" lon="4.469046103123">
        <ele>0</ele>
        <time>2019-07-21T13:37:41Z</time>
      </trkpt>
      <trkpt lat="51.217304236568" lon="4.469008803668">
        <ele>0</ele>
        <time>2019-07-21T13:37:45Z</time>
      </trkpt>
      <trkpt lat="51.217348995914" lon="4.468972845317">
        <ele>0.2</ele>
        <time>2019-07-21T13:37:51Z</time>
      </trkpt>
      <trkpt lat="51.217414207096" lon="4.468950046549">
        <ele>0</ele>
        <time>2019-07-21T13:37:59Z</time>
      </trkpt>
      <trkpt lat="51.217434156018" lon="4.468933785663">
        <ele>0</ele>
        <time>2019-07-21T13:38:03Z</time>
      </trkpt>
      <trkpt lat="51.217503641969" lon="4.468839573107">
        <ele>0</ele>
        <time>2019-07-21T13:38:13Z</time>
      </trkpt>
      <trkpt lat="51.217502552322" lon="4.468836555623">
        <ele>6</ele>
        <time>2019-07-21T13:39:17Z</time>
      </trkpt>
      <trkpt lat="51.217485369427" lon="4.468600521319">
        <ele>11.4</ele>
        <time>2019-07-21T13:39:32Z</time>
      </trkpt>
      <trkpt lat="51.217521663054" lon="4.468392231104">
        <ele>18.6</ele>
        <time>2019-07-21T13:39:46Z</time>
      </trkpt>
      <trkpt lat="51.217520741045" lon="4.468308998837">
        <ele>23.4</ele>
        <time>2019-07-21T13:39:51Z</time>
      </trkpt>
      <trkpt lat="51.217541025243" lon="4.468230628072">
        <ele>28.4</ele>
        <time>2019-07-21T13:39:56Z</time>
      </trkpt>
      <trkpt lat="51.217569691341" lon="4.468207410209">
        <ele>27.8</ele>
        <time>2019-07-21T13:39:58Z</time>
      </trkpt>
      <trkpt lat="51.217677314937" lon="4.468168685831">
        <ele>22.6</ele>
        <time>2019-07-21T13:40:05Z</time>
      </trkpt>
      <trkpt lat="51.217794829175" lon="4.468377311322">
        <ele>0</ele>
        <time>2019-07-21T13:41:31Z</time>
      </trkpt>
      <trkpt lat="51.217754428417" lon="4.468342694075">
        <ele>0</ele>
        <time>2019-07-21T13:41:34Z</time>
      </trkpt>
      <trkpt lat="51.217630376297" lon="4.468106156857">
        <ele>0.2</ele>
        <time>2019-07-21T13:41:41Z</time>
      </trkpt>
      <trkpt lat="51.217532391886" lon="4.468382927195">
        <ele>2</ele>
        <time>2019-07-21T13:41:56Z</time>
      </trkpt>
      <trkpt lat="51.217416889304" lon="4.469039732879">
        <ele>8</ele>
        <time>2019-07-21T13:42:34Z</time>
      </trkpt>
      <trkpt lat="51.217371878501" lon="4.469066638778">
        <ele>8.2</ele>
        <time>2019-07-21T13:42:38Z</time>
      </trkpt>
      <trkpt lat="51.217203150854" lon="4.469223128851">
        <ele>6.6</ele>
        <time>2019-07-21T13:42:57Z</time>
      </trkpt>
      <trkpt lat="51.217214885514" lon="4.469156325108">
        <ele>0</ele>
        <time>2019-07-21T13:43:27Z</time>
      </trkpt>
      <trkpt lat="51.217214047324" lon="4.469156241289">
        <ele>0</ele>
        <time>2019-07-21T13:43:36Z</time>
      </trkpt>
      <trkpt lat="51.217250592408" lon="4.46914358462">
        <ele>0</ele>
        <time>2019-07-21T13:43:40Z</time>
      </trkpt>
      <trkpt lat="51.217362993687" lon="4.469017269387">
        <ele>0</ele>
        <time>2019-07-21T13:43:52Z</time>
      </trkpt>
      <trkpt lat="51.217488219273" lon="4.468923559745">
        <ele>0</ele>
        <time>2019-07-21T13:44:04Z</time>
      </trkpt>
      <trkpt lat="51.21751445462" lon="4.468971336575">
        <ele>0</ele>
        <time>2019-07-21T13:44:09Z</time>
      </trkpt>
      <trkpt lat="51.217548066039" lon="4.469231007837">
        <ele>1.4</ele>
        <time>2019-07-21T13:44:26Z</time>
      </trkpt>
      <trkpt lat="51.217525099633" lon="4.469950929228">
        <ele>15.2</ele>
        <time>2019-07-21T13:45:12Z</time>
      </trkpt>
      <trkpt lat="51.217476233156" lon="4.470669760972">
        <ele>10</ele>
        <time>2019-07-21T13:45:56Z</time>
      </trkpt>
      <trkpt lat="51.217495762983" lon="4.470773696532">
        <ele>10</ele>
        <time>2019-07-21T13:46:03Z</time>
      </trkpt>
      <trkpt lat="51.2174742215" lon="4.471476099752">
        <ele>0</ele>
        <time>2019-07-21T13:46:47Z</time>
      </trkpt>
      <trkpt lat="51.217450416904" lon="4.471748930597">
        <ele>1</ele>
        <time>2019-07-21T13:47:06Z</time>
      </trkpt>
      <trkpt lat="51.217433569285" lon="4.47245946426">
        <ele>5.2</ele>
        <time>2019-07-21T13:47:53Z</time>
      </trkpt>
      <trkpt lat="51.217385457179" lon="4.473073773711">
        <ele>0</ele>
        <time>2019-07-21T13:48:32Z</time>
      </trkpt>
      <trkpt lat="51.217380511858" lon="4.473787827772">
        <ele>0</ele>
        <time>2019-07-21T13:49:18Z</time>
      </trkpt>
      <trkpt lat="51.217335249598" lon="4.47451051519">
        <ele>0</ele>
        <time>2019-07-21T13:50:04Z</time>
      </trkpt>
      <trkpt lat="51.217319826902" lon="4.47504863317">
        <ele>0</ele>
        <time>2019-07-21T13:50:40Z</time>
      </trkpt>
      <trkpt lat="51.217315971228" lon="4.475369576121">
        <ele>0</ele>
        <time>2019-07-21T13:51:02Z</time>
      </trkpt>
      <trkpt lat="51.217258722851" lon="4.47608631239">
        <ele>0</ele>
        <time>2019-07-21T13:51:47Z</time>
      </trkpt>
      <trkpt lat="51.217249083666" lon="4.476450254488">
        <ele>0</ele>
        <time>2019-07-21T13:52:12Z</time>
      </trkpt>
      <trkpt lat="51.217232487504" lon="4.477165817291">
        <ele>0.6</ele>
        <time>2019-07-21T13:52:57Z</time>
      </trkpt>
      <trkpt lat="51.217213209134" lon="4.477732014636">
        <ele>0</ele>
        <time>2019-07-21T13:53:41Z</time>
      </trkpt>
      <trkpt lat="51.217208263813" lon="4.477762273295">
        <ele>0</ele>
        <time>2019-07-21T13:55:39Z</time>
      </trkpt>
      <trkpt lat="51.217205413967" lon="4.477863359009">
        <ele>0</ele>
        <time>2019-07-21T13:55:49Z</time>
      </trkpt>
      <trkpt lat="51.21717834043" lon="4.478454785873">
        <ele>1</ele>
        <time>2019-07-21T13:56:24Z</time>
      </trkpt>
      <trkpt lat="51.217151602169" lon="4.479192225435">
        <ele>2.4</ele>
        <time>2019-07-21T13:57:10Z</time>
      </trkpt>
      <trkpt lat="51.21715990025" lon="4.479414513423">
        <ele>0.8</ele>
        <time>2019-07-21T13:57:23Z</time>
      </trkpt>
      <trkpt lat="51.217105334081" lon="4.479846684187">
        <ele>0</ele>
        <time>2019-07-21T13:57:50Z</time>
      </trkpt>
      <trkpt lat="51.217092593593" lon="4.479939220363">
        <ele>0.6</ele>
        <time>2019-07-21T13:57:56Z</time>
      </trkpt>
      <trkpt lat="51.217096700724" lon="4.480426376391">
        <ele>4.4</ele>
        <time>2019-07-21T13:58:30Z</time>
      </trkpt>
      <trkpt lat="51.217056383785" lon="4.481147387429">
        <ele>1.8</ele>
        <time>2019-07-21T13:59:17Z</time>
      </trkpt>
      <trkpt lat="51.217036099587" lon="4.481520549617">
        <ele>1.8</ele>
        <time>2019-07-21T13:59:41Z</time>
      </trkpt>
      <trkpt lat="51.217040458175" lon="4.481844426233">
        <ele>1.2</ele>
        <time>2019-07-21T14:00:01Z</time>
      </trkpt>
      <trkpt lat="51.217034255569" lon="4.481866219173">
        <ele>1</ele>
        <time>2019-07-21T14:00:24Z</time>
      </trkpt>
      <trkpt lat="51.217037608329" lon="4.481903686266">
        <ele>1</ele>
        <time>2019-07-21T14:00:27Z</time>
      </trkpt>
      <trkpt lat="51.217052025197" lon="4.482172577618">
        <ele>1.6</ele>
        <time>2019-07-21T14:00:44Z</time>
      </trkpt>
      <trkpt lat="51.216628906885" lon="4.482363601119">
        <ele>3</ele>
        <time>2019-07-21T14:01:26Z</time>
      </trkpt>
      <trkpt lat="51.21661591494" lon="4.482365277499">
        <ele>3</ele>
        <time>2019-07-21T14:01:27Z</time>
      </trkpt>
      <trkpt lat="51.21615993958" lon="4.482391261389">
        <ele>1.6</ele>
        <time>2019-07-21T14:02:10Z</time>
      </trkpt>
      <trkpt lat="51.215703628944" lon="4.482347172595">
        <ele>0</ele>
        <time>2019-07-21T14:02:55Z</time>
      </trkpt>
      <trkpt lat="51.215660881254" lon="4.482339042152">
        <ele>0</ele>
        <time>2019-07-21T14:03:00Z</time>
      </trkpt>
      <trkpt lat="51.215539176066" lon="4.482318338859">
        <ele>0</ele>
        <time>2019-07-21T14:03:21Z</time>
      </trkpt>
      <trkpt lat="51.215731205395" lon="4.482335186478">
        <ele>0</ele>
        <time>2019-07-21T14:04:05Z</time>
      </trkpt>
      <trkpt lat="51.215704215677" lon="4.482354632486">
        <ele>0</ele>
        <time>2019-07-21T14:04:08Z</time>
      </trkpt>
      <trkpt lat="51.21567965671" lon="4.482323703275">
        <ele>0</ele>
        <time>2019-07-21T14:04:12Z</time>
      </trkpt>
      <trkpt lat="51.215704467134" lon="4.482305598371">
        <ele>0</ele>
        <time>2019-07-21T14:04:15Z</time>
      </trkpt>
      <trkpt lat="51.21588920421" lon="4.482291349141">
        <ele>0</ele>
        <time>2019-07-21T14:04:45Z</time>
      </trkpt>
      <trkpt lat="51.215831620557" lon="4.482316746298">
        <ele>0</ele>
        <time>2019-07-21T14:04:51Z</time>
      </trkpt>
      <trkpt lat="51.215759200941" lon="4.482298054661">
        <ele>0</ele>
        <time>2019-07-21T14:04:58Z</time>
      </trkpt>
      <trkpt lat="51.215758027475" lon="4.48226796364">
        <ele>0</ele>
        <time>2019-07-21T14:05:00Z</time>
      </trkpt>
      <trkpt lat="51.215795075473" lon="4.482258072998">
        <ele>0</ele>
        <time>2019-07-21T14:05:04Z</time>
      </trkpt>
      <trkpt lat="51.215803876468" lon="4.482264024147">
        <ele>0</ele>
        <time>2019-07-21T14:05:05Z</time>
      </trkpt>
      <trkpt lat="51.215797422405" lon="4.48226461088">
        <ele>0</ele>
        <time>2019-07-21T14:05:11Z</time>
      </trkpt>
    </trkseg>
  </trk>
</gpx>